Time;durP1;ratioP1;P1;durP2;ratioP2;P2;SDS_P1;SDS_P2;PMS_P1;PMS_P2;Temp;Humidity;BMP_temperature;BMP_pressure;BME280_temperature;BME280_humidity;BME280_pressure;Samples;Min_cycle;Max_cycle;Signal;HPM_P1;HPM_P2
2023/06/12 00:02:03;;;;;;;;;;;;;;;22.20;40.51;101504.59;5013727;28;19918;-58
2023/06/12 00:04:29;;;;;;;;;;;;;;;22.14;40.43;101496.81;5010703;28;20403;-57
2023/06/12 00:06:56;;;;;;;;;;;;;;;22.07;40.71;101495.09;5017783;28;19960;-58
2023/06/12 00:09:21;;;;;;;;;;;;;;;22.04;40.40;101500.38;5021371;28;19920;-58
2023/06/12 00:11:46;;;;;;;;;;;;;;;22.03;41.03;101496.91;5015212;28;19914;-58
2023/06/12 00:14:12;;;;;;;;;;;;;;;21.95;41.26;101494.31;5018128;28;19990;-56
2023/06/12 00:16:37;;;;;;;;;;;;;;;21.95;40.87;101502.19;5015343;28;19917;-56
2023/06/12 00:19:03;;;;;;;;;;;;;;;21.91;41.09;101497.00;5015564;28;19952;-57
2023/06/12 00:21:28;;;;;;;;;;;;;;;21.85;41.31;101508.41;5018248;28;19921;-57
2023/06/12 00:23:54;;;;;;;;;;;;;;;21.81;41.21;101504.06;5014724;28;19965;-57
2023/06/12 00:26:19;;;;;;;;;;;;;;;21.77;41.06;101499.72;5018738;28;19928;-56
2023/06/12 00:28:45;;;;;;;;;;;;;;;21.73;41.35;101507.63;5015947;28;19960;-57
2023/06/12 00:31:10;;;;;;;;;;;;;;;21.69;41.46;101506.78;5017776;28;19965;-57
2023/06/12 00:33:36;;;;;;;;;;;;;;;21.65;41.66;101502.44;5015314;28;19913;-58
2023/06/12 00:36:02;;;;;;;;;;;;;;;21.61;42.02;101506.84;5016627;28;19921;-58
2023/06/12 00:38:27;;;;;;;;;;;;;;;21.59;41.44;101510.31;5018819;28;19957;-57
2023/06/12 00:40:52;;;;;;;;;;;;;;;21.53;41.36;101499.91;5015631;28;19971;-57
2023/06/12 00:43:17;;;;;;;;;;;;;;;21.47;42.17;101498.19;5019335;28;20012;-58
2023/06/12 00:45:43;;;;;;;;;;;;;;;21.44;41.73;101503.47;5018872;28;19928;-58
2023/06/12 00:48:08;;;;;;;;;;;;;;;21.40;41.72;101497.38;5022474;28;19921;-57
2023/06/12 00:50:35;;;;;;;;;;;;;;;21.38;41.91;101498.28;5017550;28;19991;-57
2023/06/12 00:53:00;;;;;;;;;;;;;;;21.34;41.63;101502.66;5014440;28;19914;-56
2023/06/12 00:55:28;;;;;;;;;;;;;;;21.36;41.84;101500.91;5019258;28;19917;-57
2023/06/12 00:57:53;;;;;;;;;;;;;;;21.28;42.00;101502.66;5017732;28;19914;-56
2023/06/12 01:00:19;;;;;;;;;;;;;;;21.25;42.71;101507.06;5023078;28;19947;-57
2023/06/12 01:02:52;;;;;;;;;;;;;;;21.20;42.23;101504.44;5019803;28;19918;-57
2023/06/12 01:05:19;;;;;;;;;;;;;;;21.13;42.49;101501.00;5025256;28;20257;-57
2023/06/12 01:07:54;;;;;;;;;;;;;;;21.08;42.91;101501.91;5019335;28;19920;-56
2023/06/12 01:10:40;;;;;;;;;;;;;;;21.02;42.70;101500.19;5031913;28;19935;-58
2023/06/12 01:13:05;;;;;;;;;;;;;;;20.99;43.08;101499.31;5031493;28;19913;-57
2023/06/12 01:15:31;;;;;;;;;;;;;;;20.92;43.13;101500.22;5026084;28;19925;-57
2023/06/12 01:17:58;;;;;;;;;;;;;;;20.91;43.52;101501.09;5017482;28;19917;-56
2023/06/12 01:20:23;;;;;;;;;;;;;;;20.87;43.36;101501.13;5021935;28;20357;-58
2023/06/12 01:23:12;;;;;;;;;;;;;;;20.84;43.75;101506.38;5020821;28;19917;-57
2023/06/12 01:25:43;;;;;;;;;;;;;;;20.80;43.02;101499.41;5019983;28;20017;-58
2023/06/12 01:28:18;;;;;;;;;;;;;;;20.77;43.38;101498.56;5023393;28;19925;-57
2023/06/12 01:31:06;;;;;;;;;;;;;;;20.74;43.63;101509.00;5021107;28;19921;-57
2023/06/12 01:33:35;;;;;;;;;;;;;;;20.72;43.95;101506.41;5020707;28;19984;-56
2023/06/12 01:36:01;;;;;;;;;;;;;;;20.69;43.86;101501.22;5019629;28;19917;-57
2023/06/12 01:38:32;;;;;;;;;;;;;;;20.67;43.16;101505.56;5020578;28;19928;-57
2023/06/12 01:40:57;;;;;;;;;;;;;;;20.65;44.15;101511.66;5017816;28;19968;-58
2023/06/12 01:43:23;;;;;;;;;;;;;;;20.60;43.81;101511.69;5015925;28;19922;-58
2023/06/12 01:45:48;;;;;;;;;;;;;;;20.56;44.31;101500.34;5014155;28;19925;-56
2023/06/12 01:48:14;;;;;;;;;;;;;;;20.56;44.23;101520.38;5024257;28;20008;-57
2023/06/12 01:50:40;;;;;;;;;;;;;;;20.51;43.82;101516.94;5024406;28;19917;-57
2023/06/12 01:53:07;;;;;;;;;;;;;;;20.46;45.14;101514.34;5022618;28;19960;-56
2023/06/12 01:55:33;;;;;;;;;;;;;;;20.42;44.10;101516.91;5024028;28;19971;-57
2023/06/12 01:57:59;;;;;;;;;;;;;;;20.38;45.24;101509.94;5021403;28;19917;-58
2023/06/12 02:00:24;;;;;;;;;;;;;;;20.32;45.26;101516.94;5023875;28;20334;-57
2023/06/12 02:02:53;;;;;;;;;;;;;;;20.26;45.48;101513.44;5021737;28;20327;-57
2023/06/12 02:05:18;;;;;;;;;;;;;;;20.22;45.67;101512.59;5019506;28;19925;-57
2023/06/12 02:07:44;;;;;;;;;;;;;;;20.15;45.29;101516.09;5021409;28;19925;-57
2023/06/12 02:10:09;;;;;;;;;;;;;;;20.12;45.47;101513.47;5015721;28;19925;-56
2023/06/12 02:12:34;;;;;;;;;;;;;;;20.07;46.01;101523.03;5021934;28;19917;-57
2023/06/12 02:15:00;;;;;;;;;;;;;;;20.02;46.10;101519.56;5020307;28;19922;-57
2023/06/12 02:17:26;;;;;;;;;;;;;;;19.99;46.12;101516.97;5017708;28;19921;-57
2023/06/12 02:19:51;;;;;;;;;;;;;;;19.93;46.00;101510.00;5016735;28;20256;-57
2023/06/12 02:22:16;;;;;;;;;;;;;;;19.91;46.57;101518.72;5017607;28;19975;-57
2023/06/12 02:24:41;;;;;;;;;;;;;;;19.88;46.26;101513.50;5024006;28;20063;-57
2023/06/12 02:27:07;;;;;;;;;;;;;;;19.83;46.40;101511.72;5023763;28;19922;-57
2023/06/12 02:29:32;;;;;;;;;;;;;;;19.80;45.96;101508.28;5024402;28;19922;-57
2023/06/12 02:31:57;;;;;;;;;;;;;;;19.76;45.99;101506.53;5020779;28;20003;-57
2023/06/12 02:34:22;;;;;;;;;;;;;;;19.72;46.69;101504.81;5025035;28;19920;-57
2023/06/12 02:36:48;;;;;;;;;;;;;;;19.67;46.16;101503.94;5026632;28;19956;-56
2023/06/12 02:39:13;;;;;;;;;;;;;;;19.62;47.50;101503.91;5025450;28;19917;-58
2023/06/12 02:41:42;;;;;;;;;;;;;;;19.56;47.61;101502.13;5023344;28;19975;-58
2023/06/12 02:44:07;;;;;;;;;;;;;;;19.51;47.66;101506.47;5023930;28;19921;-57
2023/06/12 02:46:33;;;;;;;;;;;;;;;19.47;47.41;101506.44;5020019;28;20380;-57
2023/06/12 02:48:59;;;;;;;;;;;;;;;19.41;47.71;101502.09;5017970;28;20289;-57
2023/06/12 02:51:24;;;;;;;;;;;;;;;19.36;47.85;101503.84;5018976;28;19925;-57
2023/06/12 02:53:50;;;;;;;;;;;;;;;19.35;48.05;101509.03;5020583;28;19921;-57
2023/06/12 02:56:15;;;;;;;;;;;;;;;19.31;47.84;101507.31;5016114;28;20440;-56
2023/06/12 02:58:40;;;;;;;;;;;;;;;19.26;47.05;101495.13;5021148;28;20043;-56
2023/06/12 03:01:06;;;;;;;;;;;;;;;19.21;48.40;101503.78;5016111;28;19963;-56
2023/06/12 03:03:31;;;;;;;;;;;;;;;19.15;47.81;101499.44;5016083;28;19967;-56
2023/06/12 03:05:57;;;;;;;;;;;;;;;19.11;48.59;101497.69;5016762;28;19952;-57
2023/06/12 03:08:22;;;;;;;;;;;;;;;19.06;49.24;101496.81;5016106;28;19995;-57
2023/06/12 03:10:47;;;;;;;;;;;;;;;19.02;49.14;101503.75;5013570;28;20336;-57
2023/06/12 03:13:13;;;;;;;;;;;;;;;18.99;49.31;101503.75;5014290;28;19917;-57
2023/06/12 03:15:38;;;;;;;;;;;;;;;18.96;49.28;101492.41;5016492;28;20016;-57
2023/06/12 03:18:04;;;;;;;;;;;;;;;18.93;49.14;101501.13;5018151;28;19928;-56
2023/06/12 03:20:32;;;;;;;;;;;;;;;18.90;49.32;101495.00;5013215;28;19932;-56
2023/06/12 03:22:58;;;;;;;;;;;;;;;18.88;49.83;101501.97;5014578;28;19967;-57
2023/06/12 03:25:23;;;;;;;;;;;;;;;18.83;51.14;101499.31;5024216;28;20082;-57
2023/06/12 03:27:49;;;;;;;;;;;;;;;18.82;49.56;101499.31;5015202;28;19929;-57
2023/06/12 03:30:14;;;;;;;;;;;;;;;18.80;48.28;101501.03;5016045;28;19932;-56
2023/06/12 03:32:40;;;;;;;;;;;;;;;18.78;49.66;101505.38;5014676;28;19918;-57
2023/06/12 03:35:06;;;;;;;;;;;;;;;18.75;48.48;101499.31;5015938;28;19943;-57
2023/06/12 03:37:31;;;;;;;;;;;;;;;18.74;49.54;101501.88;5012956;28;19918;-56
2023/06/12 03:39:56;;;;;;;;;;;;;;;18.73;49.13;101510.56;5018363;28;20364;-56
2023/06/12 03:42:22;;;;;;;;;;;;;;;18.72;48.69;101511.44;5016340;28;20388;-47
2023/06/12 03:44:47;;;;;;;;;;;;;;;18.72;50.99;101514.03;5017763;28;19925;-45
2023/06/12 03:47:14;;;;;;;;;;;;;;;18.73;50.84;101518.38;5019562;28;19944;-48
2023/06/12 03:49:39;;;;;;;;;;;;;;;18.69;51.03;101514.91;5016844;28;19928;-48
2023/06/12 03:52:04;;;;;;;;;;;;;;;18.68;51.62;101518.34;5017692;28;19913;-45
2023/06/12 03:54:30;;;;;;;;;;;;;;;18.67;51.32;101520.94;5019601;28;19944;-47
2023/06/12 03:56:55;;;;;;;;;;;;;;;18.66;52.02;101522.66;5018526;28;20347;-47
2023/06/12 03:59:20;;;;;;;;;;;;;;;18.65;52.31;101515.72;5019556;28;19925;-47
2023/06/12 04:01:48;;;;;;;;;;;;;;;18.65;51.54;101527.88;5016949;28;20351;-48
2023/06/12 04:04:14;;;;;;;;;;;;;;;18.65;51.05;101526.13;5019722;28;19921;-45
2023/06/12 04:06:40;;;;;;;;;;;;;;;18.70;51.54;101532.28;5018388;28;19929;-47
2023/06/12 04:09:08;;;;;;;;;;;;;;;18.73;50.45;101541.81;5023282;28;20284;-45
2023/06/12 04:11:38;;;;;;;;;;;;;;;18.74;50.94;101536.63;5015071;28;19924;-47
2023/06/12 04:14:04;;;;;;;;;;;;;;;18.77;50.48;101537.50;5017482;28;20399;-47
2023/06/12 04:16:29;;;;;;;;;;;;;;;18.80;50.43;101538.38;5018573;28;19925;-45
2023/06/12 04:18:56;;;;;;;;;;;;;;;18.84;50.84;101539.28;5013994;28;19925;-45
2023/06/12 04:21:21;;;;;;;;;;;;;;;19.08;50.51;101544.59;5015411;28;20252;-48
2023/06/12 04:23:47;;;;;;;;;;;;;;;19.71;49.84;101540.44;5015777;28;20035;-47
2023/06/12 04:26:12;;;;;;;;;;;;;;;20.51;48.58;101543.06;5020314;28;19921;-46
2023/06/12 04:28:37;;;;;;;;;;;;;;;21.23;47.04;101542.78;5016213;28;19913;-45
2023/06/12 04:31:03;;;;;;;;;;;;;;;21.87;45.84;101543.28;5014903;28;20299;-44
2023/06/12 04:33:35;;;;;;;;;;;;;;;22.33;44.47;101535.06;5026111;28;19921;-45
2023/06/12 04:36:02;;;;;;;;;;;;;;;22.75;43.91;101540.69;5024035;28;20328;-45
2023/06/12 04:38:30;;;;;;;;;;;;;;;23.16;43.46;101539.38;5019616;28;19918;-45
2023/06/12 04:40:56;;;;;;;;;;;;;;;23.46;42.48;101538.06;5023368;28;20336;-56
2023/06/12 04:43:21;;;;;;;;;;;;;;;23.75;42.03;101541.16;5024084;28;19972;-57
2023/06/12 04:45:47;;;;;;;;;;;;;;;23.89;41.93;101537.44;5022779;28;19921;-56
2023/06/12 04:48:13;;;;;;;;;;;;;;;24.04;42.31;101543.31;5019461;28;20032;-59
2023/06/12 04:50:38;;;;;;;;;;;;;;;24.18;41.38;101544.84;5022472;28;20000;-57
2023/06/12 04:53:03;;;;;;;;;;;;;;;24.29;41.54;101546.38;5016867;28;19917;-57
2023/06/12 04:55:30;;;;;;;;;;;;;;;24.42;40.99;101541.78;5021302;28;19932;-58
2023/06/12 04:57:57;;;;;;;;;;;;;;;24.46;40.97;101535.59;5023042;28;19928;-56
2023/06/12 05:00:23;;;;;;;;;;;;;;;24.53;41.15;101544.22;5015276;28;20419;-57
2023/06/12 05:02:49;;;;;;;;;;;;;;;24.42;41.17;101539.16;5017904;28;19921;-60
2023/06/12 05:05:15;;;;;;;;;;;;;;;24.51;41.56;101541.63;5015834;28;19955;-57
2023/06/12 05:07:45;;;;;;;;;;;;;;;24.64;40.65;101546.66;5017044;28;20307;-57
2023/06/12 05:10:10;;;;;;;;;;;;;;;24.64;40.87;101549.28;5013959;28;19984;-57
2023/06/12 05:12:35;;;;;;;;;;;;;;;24.52;40.98;101547.75;5016062;28;20369;-57
2023/06/12 05:15:01;;;;;;;;;;;;;;;24.68;40.54;101545.69;5016987;28;19965;-57
2023/06/12 05:17:27;;;;;;;;;;;;;;;24.92;40.28;101545.19;5015376;28;19960;-57
2023/06/12 05:19:52;;;;;;;;;;;;;;;25.14;39.74;101550.91;5018215;28;20568;-58
2023/06/12 05:22:18;;;;;;;;;;;;;;;25.18;40.40;101551.69;5014653;28;20303;-58
2023/06/12 05:24:43;;;;;;;;;;;;;;;25.13;39.77;101543.94;5014852;28;20354;-57
2023/06/12 05:27:08;;;;;;;;;;;;;;;25.01;39.64;101549.41;5014885;28;19925;-58
2023/06/12 05:29:33;;;;;;;;;;;;;;;24.90;39.63;101541.75;5012353;28;19918;-58
2023/06/12 05:31:59;;;;;;;;;;;;;;;24.90;39.90;101548.75;5010055;28;19947;-57
2023/06/12 05:34:24;;;;;;;;;;;;;;;25.02;39.98;101538.84;5010285;28;19921;-58
2023/06/12 05:36:50;;;;;;;;;;;;;;;25.14;39.90;101546.50;5013687;28;19929;-57
2023/06/12 05:39:15;;;;;;;;;;;;;;;25.25;39.21;101538.41;5010655;28;19921;-58
2023/06/12 05:41:41;;;;;;;;;;;;;;;25.41;39.90;101538.91;5013256;28;19921;-58
2023/06/12 05:44:08;;;;;;;;;;;;;;;25.64;39.27;101536.59;5017579;28;19918;-57
2023/06/12 05:46:34;;;;;;;;;;;;;;;25.66;38.97;101544.44;5018363;28;19925;-56
2023/06/12 05:49:00;;;;;;;;;;;;;;;25.53;39.72;101533.34;5016277;28;19925;-58
2023/06/12 05:51:26;;;;;;;;;;;;;;;25.50;38.57;101538.69;5022818;28;20040;-57
2023/06/12 05:53:51;;;;;;;;;;;;;;;25.44;38.90;101533.56;5024369;28;20230;-56
2023/06/12 05:56:16;;;;;;;;;;;;;;;25.63;37.84;101536.63;5022396;28;19967;-58
2023/06/12 05:58:44;;;;;;;;;;;;;;;25.79;38.41;101529.28;5023633;28;19921;-58
2023/06/12 06:01:11;;;;;;;;;;;;;;;25.88;38.67;101535.16;5024164;28;19924;-57
2023/06/12 06:03:42;;;;;;;;;;;;;;;25.93;38.53;101535.06;5021674;28;19921;-57
2023/06/12 06:06:08;;;;;;;;;;;;;;;25.94;37.33;101540.28;5022950;28;20044;-58
2023/06/12 06:08:33;;;;;;;;;;;;;;;25.89;38.56;101541.31;5020028;28;20470;-57
2023/06/12 06:10:58;;;;;;;;;;;;;;;25.91;38.35;101537.75;5021438;28;19921;-57
2023/06/12 06:13:23;;;;;;;;;;;;;;;25.95;39.43;101535.88;5016100;28;19956;-58
2023/06/12 06:15:49;;;;;;;;;;;;;;;26.17;37.97;101536.22;5022511;28;19928;-57
2023/06/12 06:18:14;;;;;;;;;;;;;;;26.23;38.17;101535.19;5024728;28;19963;-57
2023/06/12 06:20:40;;;;;;;;;;;;;;;26.09;38.44;101539.06;5019965;28;19925;-56
2023/06/12 06:23:05;;;;;;;;;;;;;;;25.86;38.53;101538.75;5022234;28;19967;-58
2023/06/12 06:25:31;;;;;;;;;;;;;;;25.81;38.18;101538.00;5020434;28;19917;-57
2023/06/12 06:27:57;;;;;;;;;;;;;;;25.82;38.55;101539.72;5005408;28;20352;-57
2023/06/12 06:30:22;;;;;;;;;;;;;;;25.83;37.83;101546.72;5018454;28;20007;-56
2023/06/12 06:32:47;;;;;;;;;;;;;;;25.84;37.97;101544.03;5016715;28;19923;-57
2023/06/12 06:35:12;;;;;;;;;;;;;;;25.94;37.77;101542.06;5016789;28;19980;-58
2023/06/12 06:37:38;;;;;;;;;;;;;;;26.15;37.97;101543.31;5018672;28;19917;-57
2023/06/12 06:40:05;;;;;;;;;;;;;;;26.42;36.59;101539.94;5020518;28;20004;-57
2023/06/12 06:42:30;;;;;;;;;;;;;;;26.62;37.15;101547.31;5022730;28;19975;-57
2023/06/12 06:44:55;;;;;;;;;;;;;;;26.79;36.63;101541.56;5018834;28;19933;-57
2023/06/12 06:47:20;;;;;;;;;;;;;;;26.94;36.36;101541.13;5016804;28;19922;-57
2023/06/12 06:49:46;;;;;;;;;;;;;;;26.92;35.33;101542.06;5014469;28;20789;-58
2023/06/12 06:52:11;;;;;;;;;;;;;;;26.91;34.48;101542.97;5013638;28;20033;-57
2023/06/12 06:54:36;;;;;;;;;;;;;;;26.82;35.25;101540.63;5012128;28;19924;-57
2023/06/12 06:57:02;;;;;;;;;;;;;;;26.66;35.12;101556.00;5016015;28;19917;-58
2023/06/12 06:59:27;;;;;;;;;;;;;;;26.57;36.62;101540.41;5013162;28;20519;-57
2023/06/12 07:01:53;;;;;;;;;;;;;;;26.66;35.53;101537.53;5012857;28;20132;-58
2023/06/12 07:04:18;;;;;;;;;;;;;;;26.79;35.62;101541.56;5011674;28;20285;-57
2023/06/12 07:06:43;;;;;;;;;;;;;;;26.96;35.82;101546.34;5018232;28;19940;-56
2023/06/12 07:09:09;;;;;;;;;;;;;;;27.08;34.70;101547.81;5021140;28;19929;-57
2023/06/12 07:11:34;;;;;;;;;;;;;;;27.10;34.14;101535.41;5013049;28;20372;-57
2023/06/12 07:14:00;;;;;;;;;;;;;;;27.10;34.99;101538.91;5012972;28;19917;-58
2023/06/12 07:16:25;;;;;;;;;;;;;;;27.11;35.07;101540.63;5016402;28;19959;-58
2023/06/12 07:18:51;;;;;;;;;;;;;;;27.14;34.75;101537.06;5018239;28;20889;-58
2023/06/12 07:21:17;;;;;;;;;;;;;;;26.97;35.32;101540.16;5016274;28;19917;-57
2023/06/12 07:23:42;;;;;;;;;;;;;;;26.77;34.92;101531.97;5018581;28;19922;-57
2023/06/12 07:26:08;;;;;;;;;;;;;;;26.55;35.69;101526.44;5019679;28;19917;-58
2023/06/12 07:28:33;;;;;;;;;;;;;;;26.66;35.89;101524.34;5017057;28;19918;-57
2023/06/12 07:30:58;;;;;;;;;;;;;;;26.81;35.49;101530.94;5015382;28;20004;-58
2023/06/12 07:33:23;;;;;;;;;;;;;;;27.03;35.30;101525.91;5016906;28;20330;-57
2023/06/12 07:35:49;;;;;;;;;;;;;;;27.19;34.89;101530.72;5013004;28;19925;-58
2023/06/12 07:38:14;;;;;;;;;;;;;;;27.31;35.01;101521.56;5012492;28;19925;-58
2023/06/12 07:40:39;;;;;;;;;;;;;;;27.33;34.23;101521.50;5011948;28;19921;-58
2023/06/12 07:43:05;;;;;;;;;;;;;;;27.34;34.85;101524.09;5013460;28;19922;-57
2023/06/12 07:45:30;;;;;;;;;;;;;;;27.44;34.76;101529.97;5022826;28;19921;-58
2023/06/12 07:47:57;;;;;;;;;;;;;;;27.48;33.76;101534.22;5017807;28;20269;-58
2023/06/12 07:50:23;;;;;;;;;;;;;;;27.36;34.05;101531.97;5020806;28;19973;-58
2023/06/12 07:52:48;;;;;;;;;;;;;;;27.36;34.31;101539.88;5015844;28;19928;-57
2023/06/12 07:55:14;;;;;;;;;;;;;;;27.47;34.58;101530.72;5018047;28;19925;-57
2023/06/12 07:57:39;;;;;;;;;;;;;;;27.51;34.60;101527.06;5015080;28;19929;-57
2023/06/12 08:00:05;;;;;;;;;;;;;;;27.67;34.13;101532.75;5017222;28;19918;-57
2023/06/12 08:02:33;;;;;;;;;;;;;;;27.70;34.31;101535.31;5017811;28;19918;-56
2023/06/12 08:04:59;;;;;;;;;;;;;;;27.46;34.56;101533.41;5016488;28;20008;-57
2023/06/12 08:07:26;;;;;;;;;;;;;;;27.46;34.53;101530.78;5018385;28;21192;-57
2023/06/12 08:09:51;;;;;;;;;;;;;;;27.50;34.73;101529.78;5018350;28;19929;-57
2023/06/12 08:12:16;;;;;;;;;;;;;;;27.57;34.57;101533.09;5018858;28;19921;-57
2023/06/12 08:14:41;;;;;;;;;;;;;;;27.45;34.41;101529.06;5016402;28;20423;-56
2023/06/12 08:17:07;;;;;;;;;;;;;;;27.48;33.93;101534.22;5016348;28;19918;-57
2023/06/12 08:19:32;;;;;;;;;;;;;;;27.38;34.22;101524.88;5020415;28;19917;-57
2023/06/12 08:21:58;;;;;;;;;;;;;;;27.45;33.74;101529.91;5026764;28;19929;-57
2023/06/12 08:24:25;;;;;;;;;;;;;;;27.53;34.31;101527.88;5024967;28;19943;-58
2023/06/12 08:26:50;;;;;;;;;;;;;;;27.73;33.83;101529.06;5025462;28;19929;-56
2023/06/12 08:29:15;;;;;;;;;;;;;;;27.90;33.79;101533.78;5025313;28;19970;-57
2023/06/12 08:31:41;;;;;;;;;;;;;;;27.98;33.48;101527.34;5023403;28;19928;-57
2023/06/12 08:34:06;;;;;;;;;;;;;;;27.95;33.85;101530.06;5019121;28;19922;-57
2023/06/12 08:36:35;;;;;;;;;;;;;;;28.02;33.60;101533.38;5016839;28;20372;-57
2023/06/12 08:39:00;;;;;;;;;;;;;;;28.08;33.56;101527.88;5011497;28;20067;-58
2023/06/12 08:41:27;;;;;;;;;;;;;;;28.02;33.98;101530.72;5012738;28;20004;-58
2023/06/12 08:43:53;;;;;;;;;;;;;;;28.05;33.93;101520.91;5011811;28;19917;-58
2023/06/12 08:46:18;;;;;;;;;;;;;;;28.34;33.77;101518.22;5010465;28;19924;-57
2023/06/12 08:48:44;;;;;;;;;;;;;;;28.49;33.11;101507.94;5025527;28;20012;-57
2023/06/12 08:51:10;;;;;;;;;;;;;;;28.45;33.27;101519.53;5013283;28;19989;-56
2023/06/12 08:53:35;;;;;;;;;;;;;;;28.39;33.01;101510.94;5013845;28;19932;-57
2023/06/12 08:56:00;;;;;;;;;;;;;;;28.50;33.50;101519.38;5011453;28;20288;-57
2023/06/12 08:58:26;;;;;;;;;;;;;;;28.64;32.54;101506.53;5012255;28;19920;-57
2023/06/12 09:00:51;;;;;;;;;;;;;;;28.62;33.11;101507.47;5012606;28;20052;-57
2023/06/12 09:03:19;;;;;;;;;;;;;;;28.79;32.42;101511.22;5015787;28;19927;-57
2023/06/12 09:05:45;;;;;;;;;;;;;;;28.83;32.88;101504.91;5012889;28;19918;-58
2023/06/12 09:08:10;;;;;;;;;;;;;;;28.90;31.84;101505.53;5011413;28;20392;-57
2023/06/12 09:10:36;;;;;;;;;;;;;;;28.77;32.26;101505.13;5010029;28;19918;-58
2023/06/12 09:13:05;;;;;;;;;;;;;;;28.61;31.77;101503.09;5017398;28;20571;-57
2023/06/12 09:15:32;;;;;;;;;;;;;;;28.36;31.57;101511.94;5017420;28;20367;-57
2023/06/12 09:17:57;;;;;;;;;;;;;;;28.26;32.16;101511.34;5016726;28;19917;-57
2023/06/12 09:20:27;;;;;;;;;;;;;;;28.12;32.59;101495.13;5014227;28;20422;-57
2023/06/12 09:22:56;;;;;;;;;;;;;;;28.20;32.74;101498.34;5022159;28;20371;-58
2023/06/12 09:25:26;;;;;;;;;;;;;;;28.40;32.62;101494.19;5024541;28;19913;-57
2023/06/12 09:27:51;;;;;;;;;;;;;;;28.40;31.85;101496.84;5021002;28;20387;-58
2023/06/12 09:30:16;;;;;;;;;;;;;;;28.22;32.00;101493.91;5014220;28;20388;-57
2023/06/12 09:32:43;;;;;;;;;;;;;;;28.12;32.11;101492.47;5017487;28;20284;-57
2023/06/12 09:35:09;;;;;;;;;;;;;;;27.99;32.47;101488.53;5023875;28;19956;-57
2023/06/12 09:37:35;;;;;;;;;;;;;;;27.94;32.59;101491.34;5023446;28;19913;-58
2023/06/12 09:40:10;;;;;;;;;;;;;;;27.95;32.72;101494.84;5019943;28;20277;-58
2023/06/12 09:42:36;;;;;;;;;;;;;;;27.92;32.38;101490.53;5017819;28;19926;-58
2023/06/12 09:45:15;;;;;;;;;;;;;;;27.87;32.40;101488.97;5015725;28;19920;-57
2023/06/12 09:47:46;;;;;;;;;;;;;;;27.95;32.99;101487.78;5013620;28;19933;-58
2023/06/12 09:50:13;;;;;;;;;;;;;;;28.16;32.45;101494.13;5018339;28;19997;-56
2023/06/12 09:52:41;;;;;;;;;;;;;;;28.36;32.03;101489.91;5018686;28;19920;-58
2023/06/12 09:55:08;;;;;;;;;;;;;;;28.48;31.76;101482.41;5020391;28;20016;-58
2023/06/12 09:57:35;;;;;;;;;;;;;;;28.55;31.68;101477.75;5020632;28;19917;-58
2023/06/12 10:00:02;;;;;;;;;;;;;;;28.65;31.39;101483.56;5019158;28;20414;-57
2023/06/12 10:02:28;;;;;;;;;;;;;;;28.70;31.54;101481.63;5019796;28;19956;-57
2023/06/12 10:05:02;;;;;;;;;;;;;;;28.90;30.66;101496.72;5015252;28;19955;-56
2023/06/12 10:07:32;;;;;;;;;;;;;;;28.75;30.88;101488.44;5017630;28;19920;-58
2023/06/12 10:09:58;;;;;;;;;;;;;;;28.78;31.73;101485.69;5015186;28;19948;-58
2023/06/12 10:12:25;;;;;;;;;;;;;;;29.00;30.13;101496.34;5016427;28;19918;-57
2023/06/12 10:14:50;;;;;;;;;;;;;;;28.97;30.33;101488.50;5018548;28;20004;-57
2023/06/12 10:17:16;;;;;;;;;;;;;;;29.07;30.36;101483.72;5022376;28;20034;-56
2023/06/12 10:19:47;;;;;;;;;;;;;;;29.19;30.24;101480.59;5019625;28;19920;-56
2023/06/12 10:22:13;;;;;;;;;;;;;;;29.06;29.97;101485.53;5023254;28;20020;-57
2023/06/12 10:24:38;;;;;;;;;;;;;;;29.11;30.47;101474.72;5018347;28;20043;-57
2023/06/12 10:27:05;;;;;;;;;;;;;;;29.10;30.64;101470.34;5023718;28;19970;-57
2023/06/12 10:29:32;;;;;;;;;;;;;;;29.14;30.62;101479.91;5019938;28;19964;-56
2023/06/12 10:32:04;;;;;;;;;;;;;;;29.10;31.04;101473.00;5022292;28;19913;-57
2023/06/12 10:34:33;;;;;;;;;;;;;;;29.22;30.45;101475.16;5020544;28;20372;-57
2023/06/12 10:37:18;;;;;;;;;;;;;;;29.28;30.73;101456.38;5021796;28;20003;-57
2023/06/12 10:39:45;;;;;;;;;;;;;;;29.32;30.87;101465.06;5022093;28;19913;-57
2023/06/12 10:42:11;;;;;;;;;;;;;;;29.37;30.93;101463.97;5019084;28;19921;-57
2023/06/12 10:44:38;;;;;;;;;;;;;;;29.35;30.41;101464.94;5023980;28;19929;-57
2023/06/12 10:47:03;;;;;;;;;;;;;;;29.39;30.67;101454.16;5015639;28;20011;-57
2023/06/12 10:49:29;;;;;;;;;;;;;;;29.38;31.25;101462.19;5014584;28;19921;-57
2023/06/12 10:51:54;;;;;;;;;;;;;;;29.44;30.95;101450.47;5013157;28;19924;-57
2023/06/12 10:54:27;;;;;;;;;;;;;;;29.67;30.16;101446.88;5018714;28;19981;-57
2023/06/12 10:56:58;;;;;;;;;;;;;;;29.63;29.95;101447.00;5013448;28;19928;-56
2023/06/12 10:59:33;;;;;;;;;;;;;;;29.69;30.42;101451.19;5019339;28;20019;-57
2023/06/12 11:01:58;;;;;;;;;;;;;;;29.83;30.11;101458.53;5018409;28;19914;-56
2023/06/12 11:04:23;;;;;;;;;;;;;;;29.85;30.26;101446.97;5016106;28;19928;-56
2023/06/12 11:06:49;;;;;;;;;;;;;;;29.82;30.44;101441.78;5013099;28;20347;-56
2023/06/12 11:09:15;;;;;;;;;;;;;;;29.90;30.42;101447.59;5013315;28;19924;-56
2023/06/12 11:11:41;;;;;;;;;;;;;;;30.06;29.60;101446.94;5013053;28;19921;-57
2023/06/12 11:14:06;;;;;;;;;;;;;;;30.01;29.32;101446.28;5015448;28;20281;-56
2023/06/12 11:16:39;;;;;;;;;;;;;;;29.93;30.14;101446.63;5020190;28;19936;-56
2023/06/12 11:19:06;;;;;;;;;;;;;;;29.86;30.16;101439.88;5022399;28;20354;-58
2023/06/12 11:21:32;;;;;;;;;;;;;;;29.90;30.41;101442.31;5020479;28;20348;-57
2023/06/12 11:24:03;;;;;;;;;;;;;;;30.02;29.86;101437.41;5019503;28;19924;-56
2023/06/12 11:26:31;;;;;;;;;;;;;;;30.14;29.71;101437.75;5018792;28;19926;-56
2023/06/12 11:29:11;;;;;;;;;;;;;;;30.25;29.65;101442.56;5010499;28;20422;-56
2023/06/12 11:31:37;;;;;;;;;;;;;;;30.33;29.19;101442.22;5011087;28;19956;-55
2023/06/12 11:34:02;;;;;;;;;;;;;;;30.27;29.28;101446.00;5016859;28;20366;-56
2023/06/12 11:36:27;;;;;;;;;;;;;;;30.24;29.74;101427.59;5023916;28;20344;-56
2023/06/12 11:38:52;;;;;;;;;;;;;;;30.44;29.62;101427.53;5017038;28;19918;-56
2023/06/12 11:41:18;;;;;;;;;;;;;;;30.53;29.75;101428.06;5015568;28;19917;-57
2023/06/12 11:43:43;;;;;;;;;;;;;;;30.40;29.35;101427.78;5016988;28;20359;-57
2023/06/12 11:46:09;;;;;;;;;;;;;;;30.35;29.81;101427.97;5014530;28;20000;-57
2023/06/12 11:48:34;;;;;;;;;;;;;;;30.32;29.81;101429.88;5018926;28;20391;-57
2023/06/12 11:51:00;;;;;;;;;;;;;;;30.13;29.37;101419.25;5012796;28;19925;-58
2023/06/12 11:53:25;;;;;;;;;;;;;;;30.15;29.69;101420.03;5013083;28;20320;-58
2023/06/12 11:56:00;;;;;;;;;;;;;;;30.39;29.10;101426.03;5011660;28;20450;-58
2023/06/12 11:58:40;;;;;;;;;;;;;;;30.45;28.90;101415.97;5021070;28;20299;-57
2023/06/12 12:01:10;;;;;;;;;;;;;;;30.76;28.66;101416.38;5019099;28;19921;-58
2023/06/12 12:03:37;;;;;;;;;;;;;;;30.84;27.89;101406.25;5019844;28;19944;-60
2023/06/12 12:06:02;;;;;;;;;;;;;;;30.83;28.30;101408.06;5017370;28;19918;-59
2023/06/12 12:08:27;;;;;;;;;;;;;;;30.82;28.24;101414.31;5015019;28;19913;-58
2023/06/12 12:10:53;;;;;;;;;;;;;;;30.70;28.56;101412.25;5016516;28;19921;-57
2023/06/12 12:13:18;;;;;;;;;;;;;;;30.60;28.36;101405.59;5012028;28;19928;-57
2023/06/12 12:15:43;;;;;;;;;;;;;;;30.54;28.55;101411.19;5016013;28;20339;-57
2023/06/12 12:18:12;;;;;;;;;;;;;;;30.54;27.96;101403.25;5019181;28;20019;-58
2023/06/12 12:20:38;;;;;;;;;;;;;;;30.57;27.83;101408.38;5014190;28;19980;-57
2023/06/12 12:23:04;;;;;;;;;;;;;;;30.57;28.17;101400.44;5016306;28;20558;-58
2023/06/12 12:25:31;;;;;;;;;;;;;;;30.69;28.33;101394.56;5013275;28;19922;-58
2023/06/12 12:27:59;;;;;;;;;;;;;;;30.73;28.68;101398.81;5019768;28;19956;-57
2023/06/12 12:30:25;;;;;;;;;;;;;;;30.78;28.34;101396.81;5011488;28;19929;-58
2023/06/12 12:32:52;;;;;;;;;;;;;;;30.88;28.57;101397.19;5009781;28;20793;-57